Saint Francis, Maine
Current Conditions -  °F | °C
As of 8:53 AM on Saturday 25 Oct 2014 (Local Time) from KFVE Reporting Station
Overcast Overcast  
Wind Chill: 41°   Ceiling: 4300
Heat Index: 41°   Visibility: 10mi
Dew Point: 33°   Wind: 0mph
Humidity: 73%   Direction: NA
Pressure: 29.63"   Gusts: NA
Location:  47.17°N, 68.89°W
Report Text: KFVE 251253Z AUTO 00000KT 10SM OVC043 05/01 A2963 RMK AO2 SLP040 T00500006
Loading
Personal Weather Stations






























Interactive Weather Map
Tropical Storm Tracking
New forecast layout! Learn more

10-Day Weather Forecast

Advertisements
Track Severe Weather on mobile